Terminal Aerodrome Forecast
Issued by NWS Pocatello, ID

Home | Current Version | Previous Version | Text Only | Print | Product List | Glossary On
Versions: 1 2 3 4 5 6 7 8 9 10 11 12 13 14 15 16 17 18 19 20
647
FTUS45 KPIH 291120
TAFPIH
TAF
KPIH 291120Z 2912/3012 22010KT P6SM FEW080 SCT200
     FM291800 22012G18KT P6SM FEW050 OVC080
     FM300100 22011KT P6SM VCSH FEW020 OVC050
     FM300600 19012G18KT 6SM -SHRA OVC020=

USA.gov is the U.S. government's official web portal to all federal, state and local government web resources and services.